Litomysl, Minnesota
Current Conditions -  °F | °C
As of 6:15 PM on Saturday 22 Nov 2014 (Local Time) from KOWA Reporting Station
Haze Haze  
Wind Chill: 31°   Ceiling: 200
Heat Index: 39°   Visibility: 2mi
Dew Point: 37°   Wind: 14mph
Humidity: 93%   Direction: 150°SSE
Pressure: 29.61"   Gusts: NA
Location:  44.0575°N, 93.2082°W
Report Text: KOWA 230015Z AUTO 15012KT 2SM BR OVC002 04/03 A2961 RMK AO2
Loading
Personal Weather Stations






























Interactive Weather Map New forecast layout! Learn more

10-Day Weather Forecast

Advertisements
Track Severe Weather on mobile